createdAt,value
2017-09-05T00:01:45.364Z,92.30
2017-09-05T00:04:13.246Z,91.80
2017-09-05T00:06:41.101Z,91.60
2017-09-05T00:09:11.987Z,91.70
2017-09-05T00:11:47.006Z,91.90
2017-09-05T00:14:27.345Z,91.90
2017-09-05T00:16:57.984Z,92.10
2017-09-05T00:19:25.941Z,92.30
2017-09-05T00:21:58.814Z,92.10
2017-09-05T00:24:26.716Z,92.10
2017-09-05T00:26:55.290Z,92.20
2017-09-05T00:29:24.113Z,92.20
2017-09-05T00:31:51.990Z,92.10
2017-09-05T00:34:19.803Z,92.10
2017-09-05T00:36:47.867Z,92.10
2017-09-05T00:39:15.669Z,92.10
2017-09-05T00:41:43.651Z,92.10
2017-09-05T00:44:11.444Z,91.70
2017-09-05T00:46:39.433Z,91.60
2017-09-05T00:49:08.587Z,91.70
2017-09-05T00:51:36.704Z,91.90
2017-09-05T00:54:04.609Z,91.80
2017-09-05T00:56:32.488Z,92.20
2017-09-05T00:59:00.613Z,92.40
2017-09-05T01:01:28.683Z,92.20
2017-09-05T01:03:56.776Z,92.40
2017-09-05T01:06:24.601Z,92.30
2017-09-05T01:08:52.408Z,91.90
2017-09-05T01:11:20.354Z,91.40
2017-09-05T01:13:48.328Z,91.50
2017-09-05T01:16:16.102Z,91.30
2017-09-05T01:18:44.073Z,91.50
2017-09-05T01:21:11.918Z,91.60
2017-09-05T01:23:39.972Z,91.60
2017-09-05T01:26:07.758Z,91.60
2017-09-05T01:28:35.699Z,91.70
2017-09-05T01:31:04.409Z,91.70
2017-09-05T01:33:32.400Z,91.30
2017-09-05T01:36:00.159Z,91.70
2017-09-05T01:38:28.187Z,91.30
2017-09-05T01:40:56.933Z,91.70
2017-09-05T01:43:24.864Z,92.30
2017-09-05T01:45:52.608Z,92.70
2017-09-05T01:48:21.240Z,92.90
2017-09-05T01:50:49.094Z,92.80
2017-09-05T01:53:16.977Z,93.20
2017-09-05T01:55:44.933Z,92.90
2017-09-05T01:58:12.702Z,93.10
2017-09-05T02:00:41.250Z,93.10
2017-09-05T02:03:09.231Z,93.20
2017-09-05T02:05:37.308Z,93.20
2017-09-05T02:08:05.989Z,92.90
2017-09-05T02:10:33.858Z,93.20
2017-09-05T02:13:02.549Z,93.00
2017-09-05T02:15:30.308Z,93.00
2017-09-05T02:17:58.905Z,93.00
2017-09-05T02:20:26.862Z,92.80
2017-09-05T02:22:54.740Z,92.90
2017-09-05T02:25:22.491Z,93.00
2017-09-05T02:27:50.285Z,92.90
2017-09-05T02:30:18.324Z,92.90
2017-09-05T02:32:46.228Z,93.00
2017-09-05T02:35:14.057Z,93.00
2017-09-05T02:37:42.331Z,93.10
2017-09-05T02:40:10.215Z,92.80
2017-09-05T02:45:31.091Z,92.50
2017-09-05T02:47:58.982Z,92.00
2017-09-05T02:50:26.726Z,92.00
2017-09-05T02:52:55.149Z,91.70
2017-09-05T02:55:22.882Z,91.70
2017-09-05T02:57:50.964Z,91.80
2017-09-05T03:00:18.905Z,91.90
2017-09-05T03:02:46.798Z,92.20
2017-09-05T03:05:14.538Z,92.30
2017-09-05T03:07:42.296Z,92.50
2017-09-05T03:10:10.062Z,92.20
2017-09-05T03:12:37.818Z,92.30
2017-09-05T03:15:05.876Z,92.10
2017-09-05T03:17:33.789Z,92.20
2017-09-05T03:20:01.851Z,92.60
2017-09-05T03:22:29.833Z,92.10
2017-09-05T03:24:57.611Z,92.20
2017-09-05T03:27:25.668Z,92.20
2017-09-05T03:29:53.475Z,92.20
2017-09-05T03:32:21.235Z,92.20
2017-09-05T03:34:49.191Z,92.20
2017-09-05T03:37:17.031Z,92.10
2017-09-05T03:39:44.894Z,91.90
2017-09-05T03:42:12.792Z,92.00
2017-09-05T03:44:40.660Z,92.40
2017-09-05T03:47:08.453Z,91.80
2017-09-05T03:49:36.299Z,92.00
2017-09-05T03:52:04.110Z,92.00
2017-09-05T03:54:32.004Z,92.20
2017-09-05T03:57:00.071Z,92.00
2017-09-05T03:59:27.930Z,92.00
2017-09-05T04:01:55.812Z,91.70
2017-09-05T04:04:23.866Z,91.90
2017-09-05T04:06:51.961Z,91.90
2017-09-05T04:09:19.749Z,91.80
2017-09-05T04:11:48.405Z,91.70
2017-09-05T04:14:16.396Z,91.70
2017-09-05T04:16:44.153Z,91.70
2017-09-05T04:19:11.991Z,91.60
2017-09-05T04:21:39.830Z,91.50
2017-09-05T04:24:07.745Z,91.50
2017-09-05T04:26:35.502Z,91.60
2017-09-05T04:29:03.376Z,91.60
2017-09-05T04:31:31.355Z,91.60
2017-09-05T04:33:59.250Z,91.50
2017-09-05T04:36:27.067Z,91.50
2017-09-05T04:38:55.434Z,91.70
2017-09-05T04:41:23.400Z,91.00
2017-09-05T04:43:51.531Z,91.30
2017-09-05T04:46:19.373Z,91.40
2017-09-05T04:48:47.228Z,91.50
2017-09-05T04:51:14.996Z,91.40
2017-09-05T04:53:42.732Z,91.50
2017-09-05T04:56:10.491Z,91.60
2017-09-05T04:58:38.288Z,91.40
2017-09-05T05:01:06.014Z,91.60
2017-09-05T05:03:33.992Z,91.50
2017-09-05T05:06:01.816Z,91.40
2017-09-05T05:08:29.726Z,91.50
2017-09-05T05:10:57.454Z,91.80
2017-09-05T05:13:25.210Z,91.70
2017-09-05T05:15:53.020Z,91.60
2017-09-05T05:18:20.795Z,91.70
2017-09-05T05:20:48.533Z,91.60
2017-09-05T05:23:16.412Z,91.60
2017-09-05T05:25:44.389Z,91.60
2017-09-05T05:28:12.247Z,91.30
2017-09-05T05:30:39.973Z,91.20
2017-09-05T05:33:07.983Z,91.10
2017-09-05T05:35:36.876Z,91.10
2017-09-05T05:38:04.845Z,91.20
2017-09-05T05:40:33.853Z,91.00
2017-09-05T05:43:01.704Z,90.90
2017-09-05T05:45:29.443Z,91.20
2017-09-05T05:47:57.336Z,91.30
2017-09-05T05:50:25.403Z,91.20
2017-09-05T05:52:53.392Z,91.10
2017-09-05T05:55:21.163Z,90.90
2017-09-05T05:57:49.429Z,91.10
2017-09-05T06:00:17.298Z,90.80
2017-09-05T06:02:46.324Z,90.60
2017-09-05T06:05:14.199Z,90.40
2017-09-05T06:07:41.959Z,90.40
2017-09-05T06:10:10.027Z,90.30
2017-09-05T06:12:38.508Z,90.60
2017-09-05T06:15:06.293Z,90.10
2017-09-05T06:17:34.099Z,90.30
2017-09-05T06:20:01.947Z,90.10
2017-09-05T06:22:29.815Z,90.50
2017-09-05T06:24:57.701Z,90.00
2017-09-05T06:27:25.572Z,89.60
2017-09-05T06:29:53.415Z,89.20
2017-09-05T06:32:21.309Z,90.00
2017-09-05T06:34:49.175Z,88.60
2017-09-05T06:37:17.030Z,89.20
2017-09-05T06:39:44.881Z,88.20
2017-09-05T06:42:12.732Z,88.60
2017-09-05T06:44:40.577Z,88.70
2017-09-05T06:47:08.402Z,88.30
2017-09-05T06:49:36.378Z,88.80
2017-09-05T06:52:04.318Z,87.00
2017-09-05T06:54:32.386Z,86.40
2017-09-05T06:57:00.241Z,86.80
2017-09-05T06:59:29.650Z,86.50
2017-09-05T07:01:57.832Z,87.00
2017-09-05T07:04:26.104Z,87.10
2017-09-05T07:06:54.280Z,87.20
2017-09-05T07:09:22.248Z,87.00
2017-09-05T07:11:50.323Z,87.00
2017-09-05T07:14:18.221Z,86.50
2017-09-05T07:16:46.054Z,86.60
2017-09-05T07:19:13.863Z,86.40
2017-09-05T07:21:41.667Z,86.00
2017-09-05T07:24:09.558Z,86.00
2017-09-05T07:26:37.620Z,85.90
2017-09-05T07:29:05.502Z,85.40
2017-09-05T07:31:33.579Z,84.50
2017-09-05T07:34:01.454Z,84.30
2017-09-05T07:36:31.747Z,83.80
2017-09-05T07:39:01.531Z,84.50
2017-09-05T07:41:31.508Z,84.50
2017-09-05T07:44:01.235Z,84.00
2017-09-05T07:46:29.115Z,83.60
2017-09-05T07:48:56.982Z,84.40
2017-09-05T07:51:24.726Z,84.60
2017-09-05T07:53:52.647Z,84.10
2017-09-05T07:56:20.520Z,83.40
2017-09-05T07:58:48.333Z,83.40
2017-09-05T08:01:16.171Z,81.20
2017-09-05T08:03:44.031Z,82.10
2017-09-05T08:06:11.999Z,81.30
2017-09-05T08:08:44.712Z,82.20
2017-09-05T08:11:12.941Z,81.80
2017-09-05T08:13:40.725Z,81.40
2017-09-05T08:16:08.881Z,83.50
2017-09-05T08:18:36.878Z,82.70
2017-09-05T08:21:04.811Z,81.80
2017-09-05T08:23:32.780Z,82.20
2017-09-05T08:26:00.747Z,82.90
2017-09-05T08:28:28.943Z,80.50
2017-09-05T08:30:56.787Z,81.10
2017-09-05T08:33:24.658Z,80.70
2017-09-05T08:35:52.529Z,79.50
2017-09-05T08:38:20.393Z,80.40
2017-09-05T08:40:48.198Z,80.80
2017-09-05T08:43:16.326Z,80.90
2017-09-05T08:45:44.425Z,82.70
2017-09-05T08:48:12.256Z,83.30
2017-09-05T08:50:40.253Z,83.00
2017-09-05T08:53:08.251Z,82.50
2017-09-05T08:55:36.069Z,83.30
2017-09-05T08:58:03.856Z,85.50
2017-09-05T09:00:31.926Z,84.30
2017-09-05T09:02:59.868Z,84.50
2017-09-05T09:05:27.615Z,85.10
2017-09-05T09:07:55.445Z,85.10
2017-09-05T09:10:23.196Z,85.60
2017-09-05T09:12:51.058Z,84.50
2017-09-05T09:15:18.901Z,83.50
2017-09-05T09:17:46.872Z,83.00
2017-09-05T09:20:33.769Z,81.20
2017-09-05T09:23:01.664Z,81.50
2017-09-05T09:25:30.133Z,81.00
2017-09-05T09:27:58.307Z,80.50
2017-09-05T09:30:26.686Z,80.60
2017-09-05T09:32:54.454Z,80.40
2017-09-05T09:35:22.514Z,81.50
2017-09-05T09:37:50.489Z,80.60
2017-09-05T09:40:18.484Z,81.30
2017-09-05T09:42:46.632Z,80.80
2017-09-05T09:45:14.409Z,79.30
2017-09-05T09:47:42.361Z,79.00
2017-09-05T09:50:10.338Z,77.00
2017-09-05T09:52:38.105Z,76.30
2017-09-05T09:55:05.978Z,77.20
2017-09-05T09:57:33.841Z,78.10
2017-09-05T10:00:01.972Z,76.40
2017-09-05T10:02:29.724Z,76.20
2017-09-05T10:04:57.631Z,75.50
2017-09-05T10:07:25.507Z,76.10
2017-09-05T10:09:53.482Z,71.20
2017-09-05T10:12:21.350Z,65.20
2017-09-05T10:14:49.197Z,66.60
2017-09-05T10:17:16.966Z,62.20
2017-09-05T10:19:44.849Z,62.70
2017-09-05T10:22:12.608Z,62.70
2017-09-05T10:24:40.369Z,62.50
2017-09-05T10:27:08.344Z,64.20
2017-09-05T10:29:36.415Z,62.50
2017-09-05T10:32:04.369Z,60.50
2017-09-05T10:34:32.370Z,60.00
2017-09-05T10:37:00.339Z,62.10
2017-09-05T10:39:28.287Z,65.60
2017-09-05T10:41:56.244Z,66.20
2017-09-05T10:44:24.212Z,71.20
2017-09-05T10:46:52.097Z,67.10
2017-09-05T10:49:20.038Z,63.90
2017-09-05T10:51:47.910Z,63.50
2017-09-05T10:54:15.650Z,64.20
2017-09-05T10:56:43.411Z,61.40
2017-09-05T10:59:11.444Z,62.70
2017-09-05T11:01:39.312Z,61.00
2017-09-05T11:04:07.072Z,62.00
2017-09-05T11:06:34.824Z,59.90
2017-09-05T11:09:02.682Z,60.10
2017-09-05T11:11:30.447Z,61.00
2017-09-05T11:13:58.426Z,59.80
2017-09-05T11:16:26.265Z,57.40
2017-09-05T11:18:54.037Z,58.00
2017-09-05T11:21:22.018Z,58.80
2017-09-05T11:23:49.754Z,59.60
2017-09-05T11:26:17.787Z,60.60
2017-09-05T11:28:45.756Z,58.40
2017-09-05T11:31:13.485Z,56.70
2017-09-05T11:33:41.251Z,54.80
2017-09-05T11:36:09.230Z,56.80
2017-09-05T11:38:37.110Z,57.00
2017-09-05T11:41:05.750Z,59.30
2017-09-05T11:43:33.524Z,58.60
2017-09-05T11:46:01.290Z,58.30
2017-09-05T11:48:29.193Z,57.50
2017-09-05T11:50:57.014Z,59.70
2017-09-05T11:53:24.849Z,58.10
2017-09-05T11:55:52.844Z,57.10
2017-09-05T11:58:21.022Z,54.30
2017-09-05T12:00:48.976Z,53.40
2017-09-05T12:03:16.769Z,55.80
2017-09-05T12:05:44.639Z,55.40
2017-09-05T12:08:12.687Z,52.70
2017-09-05T12:10:40.568Z,52.80
2017-09-05T12:13:08.841Z,55.30
2017-09-05T12:15:37.063Z,54.70
2017-09-05T12:18:06.823Z,56.30
2017-09-05T12:20:35.102Z,57.00
2017-09-05T12:23:03.593Z,53.40
2017-09-05T12:25:31.415Z,53.00
2017-09-05T12:27:59.512Z,54.10
2017-09-05T12:30:27.803Z,57.00
2017-09-05T12:32:55.982Z,53.70
2017-09-05T12:35:23.939Z,56.10
2017-09-05T12:37:51.805Z,52.10
2017-09-05T12:40:19.834Z,53.70
2017-09-05T12:42:47.855Z,53.10
2017-09-05T12:45:15.914Z,53.70
2017-09-05T12:47:43.660Z,55.70
2017-09-05T12:50:12.336Z,52.80
2017-09-05T12:52:40.084Z,54.00
2017-09-05T12:55:08.047Z,54.30
2017-09-05T12:57:35.944Z,52.90
2017-09-05T13:00:03.772Z,51.20
2017-09-05T13:02:31.830Z,49.90
2017-09-05T13:04:59.569Z,50.60
2017-09-05T13:07:27.370Z,52.40
2017-09-05T13:09:55.124Z,48.70
2017-09-05T13:12:23.891Z,49.30
2017-09-05T13:14:51.620Z,52.20
2017-09-05T13:17:19.438Z,50.40
2017-09-05T13:19:47.280Z,50.70
2017-09-05T13:22:15.142Z,49.80
2017-09-05T13:24:43.026Z,51.70
2017-09-05T13:27:10.791Z,49.10
2017-09-05T13:29:39.801Z,48.90
2017-09-05T13:32:07.836Z,46.90
2017-09-05T13:34:35.616Z,49.90
2017-09-05T13:37:04.392Z,50.50
2017-09-05T13:39:32.326Z,48.50
2017-09-05T13:42:00.137Z,48.80
2017-09-05T13:44:28.116Z,50.80
2017-09-05T13:46:56.063Z,51.90
2017-09-05T13:49:23.842Z,50.90
2017-09-05T13:51:51.651Z,47.80
2017-09-05T13:54:19.383Z,46.20
2017-09-05T13:56:48.200Z,48.80
2017-09-05T13:59:16.033Z,49.80
2017-09-05T14:01:44.705Z,53.20
2017-09-05T14:04:12.506Z,54.90
2017-09-05T14:06:40.427Z,52.40
2017-09-05T14:09:08.321Z,52.70
2017-09-05T14:11:36.261Z,54.50
2017-09-05T14:14:04.038Z,53.70
2017-09-05T14:16:31.763Z,54.50
2017-09-05T14:19:00.135Z,53.50
2017-09-05T14:21:27.975Z,54.40
2017-09-05T14:23:55.908Z,52.20
2017-09-05T14:26:23.714Z,53.70
2017-09-05T14:28:51.644Z,58.10
2017-09-05T14:31:20.357Z,52.20
2017-09-05T14:33:49.130Z,52.60
2017-09-05T14:36:16.972Z,54.10
2017-09-05T14:38:44.710Z,53.20
2017-09-05T14:41:12.606Z,53.50
2017-09-05T14:43:40.502Z,50.90
2017-09-05T14:46:08.346Z,54.70
2017-09-05T14:48:36.208Z,53.10
2017-09-05T14:51:04.002Z,55.00
2017-09-05T14:53:32.143Z,54.20
2017-09-05T14:56:00.061Z,54.10
2017-09-05T14:58:27.874Z,52.40
2017-09-05T15:01:14.695Z,52.50
2017-09-05T15:03:54.976Z,50.40
2017-09-05T15:06:28.137Z,51.00
2017-09-05T15:09:07.040Z,49.60
2017-09-05T15:11:35.988Z,49.20
2017-09-05T15:14:04.105Z,48.50
2017-09-05T15:16:31.890Z,48.90
2017-09-05T15:18:59.820Z,46.90
2017-09-05T15:21:27.833Z,45.00
2017-09-05T15:23:55.592Z,47.30
2017-09-05T15:26:23.423Z,46.40
2017-09-05T15:28:51.274Z,47.40
2017-09-05T15:31:19.204Z,45.80
2017-09-05T15:33:47.084Z,45.10
2017-09-05T15:36:15.139Z,47.50
2017-09-05T15:38:42.996Z,44.70
2017-09-05T15:41:10.910Z,45.00
2017-09-05T15:43:38.843Z,47.30
2017-09-05T15:46:06.703Z,46.30
2017-09-05T15:48:34.837Z,45.50
2017-09-05T15:51:02.613Z,47.60
2017-09-05T15:53:30.447Z,49.00
2017-09-05T15:55:58.233Z,50.10
2017-09-05T15:58:26.170Z,49.70
2017-09-05T16:00:53.944Z,49.60
2017-09-05T16:03:21.879Z,50.40
2017-09-05T16:05:49.748Z,49.00
2017-09-05T16:08:17.602Z,47.50
2017-09-05T16:10:45.387Z,46.50
2017-09-05T16:13:13.116Z,47.50
2017-09-05T16:15:40.893Z,45.90
2017-09-05T16:18:08.794Z,46.40
2017-09-05T16:20:36.653Z,46.40
2017-09-05T16:23:04.422Z,44.60
2017-09-05T16:25:32.168Z,45.80
2017-09-05T16:28:01.046Z,45.30
2017-09-05T16:30:28.869Z,47.10
2017-09-05T16:32:56.616Z,48.00
2017-09-05T16:35:24.365Z,47.20
2017-09-05T16:37:52.208Z,49.70
2017-09-05T16:40:20.069Z,49.00
2017-09-05T16:42:47.859Z,49.10
2017-09-05T16:45:15.911Z,46.70
2017-09-05T16:47:43.802Z,47.10
2017-09-05T16:50:11.640Z,46.90
2017-09-05T16:52:39.615Z,45.20
2017-09-05T16:55:07.680Z,45.90
2017-09-05T16:57:35.594Z,46.50
2017-09-05T17:00:03.620Z,45.60
2017-09-05T17:02:31.619Z,45.90
2017-09-05T17:04:59.558Z,47.60
2017-09-05T17:07:27.564Z,48.00
2017-09-05T17:09:55.499Z,47.40
2017-09-05T17:12:23.383Z,48.90
2017-09-05T17:14:51.335Z,50.50
2017-09-05T17:17:19.623Z,52.40
2017-09-05T17:19:47.483Z,53.40
2017-09-05T17:22:15.241Z,55.60
2017-09-05T17:24:43.099Z,58.60
2017-09-05T17:27:10.971Z,61.10
2017-09-05T17:29:38.833Z,62.20
2017-09-05T17:32:06.829Z,63.70
2017-09-05T17:34:34.990Z,65.40
2017-09-05T17:37:02.959Z,66.30
2017-09-05T17:39:30.919Z,66.60
2017-09-05T17:41:58.691Z,67.70
2017-09-05T17:44:26.738Z,68.70
2017-09-05T17:46:54.732Z,69.80
2017-09-05T17:49:22.899Z,70.80
2017-09-05T17:51:50.867Z,72.10
2017-09-05T17:54:18.726Z,72.40
2017-09-05T17:56:46.600Z,72.60
2017-09-05T17:59:14.570Z,72.70
2017-09-05T18:01:42.736Z,73.40
2017-09-05T18:04:10.494Z,74.00
2017-09-05T18:06:38.306Z,74.80
2017-09-05T18:09:06.295Z,75.50
2017-09-05T18:11:34.080Z,75.70
2017-09-05T18:14:02.009Z,75.80
2017-09-05T18:16:30.253Z,76.00
2017-09-05T18:18:58.106Z,76.10
2017-09-05T18:21:25.983Z,76.10
2017-09-05T18:23:53.945Z,76.30
2017-09-05T18:26:21.918Z,76.50
2017-09-05T18:28:49.691Z,76.30
2017-09-05T18:31:17.852Z,75.90
2017-09-05T18:33:46.001Z,76.40
2017-09-05T18:36:13.904Z,76.00
2017-09-05T18:38:41.857Z,76.40
2017-09-05T18:41:09.936Z,75.90
2017-09-05T18:43:41.947Z,75.70
2017-09-05T18:46:10.891Z,75.70
2017-09-05T18:48:39.441Z,75.70
2017-09-05T18:51:07.540Z,76.00
2017-09-05T18:53:35.818Z,75.80
2017-09-05T18:56:04.248Z,75.70
2017-09-05T18:58:32.391Z,75.90
2017-09-05T19:01:00.541Z,75.70
2017-09-05T19:03:28.887Z,74.90
2017-09-05T19:05:56.706Z,75.40
2017-09-05T19:08:25.878Z,75.80
2017-09-05T19:10:53.954Z,75.50
2017-09-05T19:13:21.846Z,75.20
2017-09-05T19:15:49.686Z,74.50
2017-09-05T19:18:17.898Z,75.60
2017-09-05T19:20:45.833Z,75.10
2017-09-05T19:23:13.730Z,75.40
2017-09-05T19:25:41.604Z,75.20
2017-09-05T19:28:09.439Z,75.40
2017-09-05T19:30:37.439Z,75.90
2017-09-05T19:33:06.197Z,75.00
2017-09-05T19:35:34.176Z,74.30
2017-09-05T19:38:02.126Z,74.00
2017-09-05T19:40:30.098Z,73.90
2017-09-05T19:42:57.958Z,73.30
2017-09-05T19:45:25.938Z,72.70
2017-09-05T19:47:53.926Z,72.90
2017-09-05T19:50:21.702Z,72.80
2017-09-05T19:52:49.640Z,72.60
2017-09-05T19:55:17.459Z,72.70
2017-09-05T19:57:45.986Z,72.60
2017-09-05T20:00:14.897Z,72.30
2017-09-05T20:02:42.783Z,72.70
2017-09-05T20:05:10.646Z,72.70
2017-09-05T20:07:38.690Z,72.80
2017-09-05T20:10:06.638Z,72.60
2017-09-05T20:12:34.608Z,72.40
2017-09-05T20:15:02.590Z,72.00
2017-09-05T20:17:30.511Z,71.90
2017-09-05T20:19:58.415Z,71.70
2017-09-05T20:22:26.384Z,72.00
2017-09-05T20:24:54.454Z,71.80
2017-09-05T20:27:22.326Z,72.20
2017-09-05T20:29:51.314Z,72.10
2017-09-05T20:32:19.462Z,72.60
2017-09-05T20:34:47.621Z,72.20
2017-09-05T20:37:15.819Z,72.40
2017-09-05T20:39:43.682Z,72.90
2017-09-05T20:42:11.812Z,73.00
2017-09-05T20:44:43.319Z,73.10
2017-09-05T20:47:11.501Z,72.90
2017-09-05T20:49:39.403Z,73.30
2017-09-05T20:52:07.239Z,73.20
2017-09-05T20:54:35.100Z,73.20
2017-09-05T20:57:03.696Z,73.20
2017-09-05T20:59:31.608Z,72.90
2017-09-05T21:01:59.618Z,73.00
2017-09-05T21:04:27.689Z,73.20
2017-09-05T21:06:55.555Z,73.30
2017-09-05T21:09:23.564Z,73.30
2017-09-05T21:11:51.527Z,73.30
2017-09-05T21:14:19.432Z,73.40
2017-09-05T21:16:47.218Z,73.50
2017-09-05T21:19:15.102Z,73.00
2017-09-05T21:21:43.098Z,72.90
2017-09-05T21:24:22.602Z,72.60
2017-09-05T21:26:50.835Z,72.60
2017-09-05T21:29:18.603Z,73.00
2017-09-05T21:31:46.412Z,72.40
2017-09-05T21:34:17.873Z,72.20
2017-09-05T21:36:56.573Z,72.50
2017-09-05T21:39:25.373Z,72.70
2017-09-05T21:41:53.345Z,73.80
2017-09-05T21:44:21.132Z,72.90
2017-09-05T21:46:48.969Z,73.20
2017-09-05T21:49:17.359Z,73.00
2017-09-05T21:51:46.445Z,72.60
2017-09-05T21:54:14.311Z,73.00
2017-09-05T21:56:42.283Z,73.60
2017-09-05T21:59:10.356Z,73.60
2017-09-05T22:01:38.221Z,74.30
2017-09-05T22:04:07.124Z,74.10
2017-09-05T22:06:35.079Z,75.10
2017-09-05T22:09:03.053Z,75.10
2017-09-05T22:11:31.016Z,75.30
2017-09-05T22:14:04.560Z,75.00
2017-09-05T22:16:37.951Z,75.10
2017-09-05T22:19:11.608Z,75.20
2017-09-05T22:21:39.410Z,75.70
2017-09-05T22:24:07.261Z,75.60
2017-09-05T22:26:40.862Z,75.80
2017-09-05T22:29:09.727Z,75.50
2017-09-05T22:31:37.668Z,75.30
2017-09-05T22:34:05.665Z,75.20
2017-09-05T22:36:33.428Z,75.50
2017-09-05T22:39:01.401Z,76.00
2017-09-05T22:41:29.294Z,75.80
2017-09-05T22:43:57.164Z,75.00
2017-09-05T22:46:25.018Z,75.50
2017-09-05T22:48:52.794Z,75.30
2017-09-05T22:51:20.644Z,75.40
2017-09-05T22:53:48.494Z,75.00
2017-09-05T22:56:16.251Z,75.00
2017-09-05T22:58:44.026Z,74.30
2017-09-05T23:01:11.893Z,74.60
2017-09-05T23:03:39.767Z,74.50
2017-09-05T23:06:07.726Z,74.40
2017-09-05T23:08:35.500Z,74.10
2017-09-05T23:11:03.382Z,74.10
2017-09-05T23:13:31.329Z,74.20
2017-09-05T23:15:59.217Z,74.80
2017-09-05T23:18:27.182Z,74.80
2017-09-05T23:20:55.130Z,75.10
2017-09-05T23:23:23.610Z,75.80
2017-09-05T23:25:51.372Z,76.30
2017-09-05T23:28:19.129Z,76.00
2017-09-05T23:30:47.618Z,75.70
2017-09-05T23:33:15.396Z,75.50
2017-09-05T23:35:43.160Z,76.00
2017-09-05T23:38:11.027Z,76.40
2017-09-05T23:40:39.615Z,76.40
2017-09-05T23:43:07.367Z,76.30
2017-09-05T23:45:35.333Z,76.50
2017-09-05T23:48:03.070Z,76.50
2017-09-05T23:50:30.884Z,76.60
2017-09-05T23:52:58.746Z,76.70
2017-09-05T23:55:26.693Z,77.00
2017-09-05T23:57:54.596Z,77.50
